Time;durP1;ratioP1;P1;durP2;ratioP2;P2;SDS_P1;SDS_P2;PMS_P1;PMS_P2;Temp;Humidity;BMP_temperature;BMP_pressure;BME280_temperature;BME280_humidity;BME280_pressure;Samples;Min_cycle;Max_cycle;Signal;HPM_P1;HPM_P2
2023/04/05 13:51:39;;;;;;;6.53;3.72;;;;;;;;;;6332822;22;20019;-83
2023/04/05 13:54:06;;;;;;;5.43;3.83;;;;;;;;;;6334434;22;20011;-82
2023/04/05 13:56:32;;;;;;;6.80;4.10;;;;;;;;;;6336726;22;20015;-81
2023/04/05 13:58:58;;;;;;;12.50;4.25;;;;;;;;;;6337208;22;20026;-81
2023/04/05 14:01:24;;;;;;;13.85;4.40;;;;;;;;;;6310925;22;20006;-81
2023/04/05 14:03:50;;;;;;;13.43;4.80;;;;;;;;;;6338518;22;20056;-81
2023/04/05 14:06:16;;;;;;;6.90;4.72;;;;;;;;;;6310278;22;20037;-82
2023/04/05 14:08:43;;;;;;;8.95;5.85;;;;;;;;;;6336937;22;20439;-82
2023/04/05 14:11:09;;;;;;;5.53;4.10;;;;;;;;;;6285236;22;20013;-82
2023/04/05 14:13:35;;;;;;;8.80;4.40;;;;;;;;;;6337666;22;20340;-83
2023/04/05 14:16:01;;;;;;;9.10;5.05;;;;;;;;;;6337429;22;20007;-81
2023/04/05 14:18:27;;;;;;;5.15;4.30;;;;;;;;;;6309754;22;20046;-81
2023/04/05 14:20:55;;;;;;;12.00;7.03;;;;;;;;;;6309770;22;20017;-80
2023/04/05 14:23:22;;;;;;;8.68;3.80;;;;;;;;;;6337946;22;20468;-80
2023/04/05 14:25:48;;;;;;;3.78;3.53;;;;;;;;;;6308227;22;20056;-82
2023/04/05 14:28:14;;;;;;;15.93;4.72;;;;;;;;;;6308219;22;20015;-80
2023/04/05 14:30:40;;;;;;;4.30;3.60;;;;;;;;;;6308406;22;20065;-81
2023/04/05 14:33:08;;;;;;;4.97;3.45;;;;;;;;;;6261682;22;20023;-83
2023/04/05 14:35:38;;;;;;;11.32;4.57;;;;;;;;;;6328969;22;20017;-78
2023/04/05 14:38:04;;;;;;;7.50;4.50;;;;;;;;;;6329655;22;20015;-80
2023/04/05 14:40:30;;;;;;;5.22;4.72;;;;;;;;;;6360141;22;20043;-79
2023/04/05 14:42:56;;;;;;;4.63;4.15;;;;;;;;;;6308529;22;20006;-79
2023/04/05 14:45:25;;;;;;;7.53;4.43;;;;;;;;;;6344517;22;20019;-80
2023/04/05 14:47:51;;;;;;;4.15;3.80;;;;;;;;;;6315088;22;20354;-81
2023/04/05 14:50:18;;;;;;;8.18;4.70;;;;;;;;;;6273747;22;20034;-80
2023/04/05 14:52:46;;;;;;;6.20;4.20;;;;;;;;;;6309521;22;20491;-80
2023/04/05 14:55:12;;;;;;;10.68;5.40;;;;;;;;;;6257535;22;20530;-81
2023/04/05 14:57:39;;;;;;;5.00;4.50;;;;;;;;;;6308027;22;20011;-79
2023/04/05 15:00:06;;;;;;;8.52;4.00;;;;;;;;;;6278193;22;20022;-79
2023/04/05 15:02:32;;;;;;;9.65;5.85;;;;;;;;;;6275178;22;20015;-77
2023/04/05 15:04:59;;;;;;;5.32;3.97;;;;;;;;;;6275085;22;20467;-79
2023/04/05 15:07:26;;;;;;;9.48;4.20;;;;;;;;;;6274656;22;20375;-78
2023/04/05 15:09:51;;;;;;;6.22;4.10;;;;;;;;;;6274546;22;20042;-78
2023/04/05 15:12:17;;;;;;;6.40;4.57;;;;;;;;;;6302448;22;20011;-76
2023/04/05 15:14:49;;;;;;;6.45;4.25;;;;;;;;;;6301315;22;20011;-81
2023/04/05 15:17:15;;;;;;;10.23;4.05;;;;;;;;;;6298836;22;20011;-76
2023/04/05 15:19:41;;;;;;;4.57;4.18;;;;;;;;;;6276276;22;20022;-76
2023/04/05 15:22:08;;;;;;;8.60;3.80;;;;;;;;;;6303234;22;20011;-77
2023/04/05 15:24:36;;;;;;;6.65;4.07;;;;;;;;;;6302837;22;20014;-79
2023/04/05 15:27:02;;;;;;;7.63;3.30;;;;;;;;;;6274343;22;20017;-79
2023/04/05 15:29:28;;;;;;;6.75;4.15;;;;;;;;;;6304594;22;20106;-79
2023/04/05 15:31:54;;;;;;;7.03;3.50;;;;;;;;;;6278686;22;20013;-83
2023/04/05 15:34:23;;;;;;;8.63;3.42;;;;;;;;;;6303729;22;20015;-79
2023/04/05 15:36:50;;;;;;;9.27;4.05;;;;;;;;;;6276691;22;20008;-81
2023/04/05 15:39:16;;;;;;;4.28;3.88;;;;;;;;;;6304767;22;20090;-81
2023/04/05 15:41:43;;;;;;;6.35;3.80;;;;;;;;;;6303602;22;20359;-76
2023/04/05 15:44:09;;;;;;;6.57;3.70;;;;;;;;;;6303466;22;20015;-77
2023/04/05 15:46:35;;;;;;;5.82;3.42;;;;;;;;;;6276754;22;20021;-81
2023/04/05 15:49:01;;;;;;;5.25;3.60;;;;;;;;;;6296320;22;20026;-77
2023/04/05 15:51:27;;;;;;;5.78;3.90;;;;;;;;;;6357004;22;20076;-77
2023/04/05 15:53:53;;;;;;;6.18;4.38;;;;;;;;;;6357901;22;20017;-78
2023/04/05 15:56:22;;;;;;;13.13;4.43;;;;;;;;;;6348017;22;20003;-78
2023/04/05 15:58:48;;;;;;;9.82;4.15;;;;;;;;;;6352872;22;20015;-78
2023/04/05 16:01:14;;;;;;;10.05;4.35;;;;;;;;;;6352920;22;20081;-80
2023/04/05 16:03:40;;;;;;;7.50;4.35;;;;;;;;;;6337444;22;20404;-79
2023/04/05 16:06:06;;;;;;;6.20;4.10;;;;;;;;;;6336637;22;20332;-79
2023/04/05 16:08:32;;;;;;;15.80;4.50;;;;;;;;;;6335903;22;20021;-79
2023/04/05 16:10:59;;;;;;;11.82;4.60;;;;;;;;;;6308467;22;20011;-75
2023/04/05 16:13:25;;;;;;;11.38;3.70;;;;;;;;;;6335918;22;20097;-76
2023/04/05 16:15:51;;;;;;;10.75;4.03;;;;;;;;;;6335649;22;20021;-79
2023/04/05 16:18:19;;;;;;;5.85;4.40;;;;;;;;;;6336934;22;20011;-77
2023/04/05 16:20:46;;;;;;;10.00;4.78;;;;;;;;;;6340781;22;20007;-78
2023/04/05 16:23:13;;;;;;;10.48;4.00;;;;;;;;;;6346889;22;20106;-76
2023/04/05 16:25:39;;;;;;;11.70;4.72;;;;;;;;;;6348206;22;20014;-78
2023/04/05 16:28:08;;;;;;;11.18;4.05;;;;;;;;;;6344170;22;20025;-77
2023/04/05 16:30:34;;;;;;;7.32;5.57;;;;;;;;;;6335139;22;20036;-77
2023/04/05 16:33:01;;;;;;;5.85;5.15;;;;;;;;;;6305004;22;20076;-77
2023/04/05 16:35:27;;;;;;;7.25;4.68;;;;;;;;;;6330853;22;20015;-76
2023/04/05 16:37:53;;;;;;;8.65;4.00;;;;;;;;;;6330853;22;20007;-76
2023/04/05 16:40:19;;;;;;;11.18;5.05;;;;;;;;;;6330424;22;20490;-77
2023/04/05 16:42:45;;;;;;;13.73;4.43;;;;;;;;;;6329428;22;20569;-77
2023/04/05 16:45:11;;;;;;;14.32;6.07;;;;;;;;;;6330828;22;20021;-77
2023/04/05 16:47:37;;;;;;;12.38;4.97;;;;;;;;;;6304692;22;20175;-77
2023/04/05 16:50:03;;;;;;;6.53;5.25;;;;;;;;;;6304325;22;20192;-77
2023/04/05 16:52:29;;;;;;;15.55;5.75;;;;;;;;;;6332236;22;20007;-77
2023/04/05 16:54:56;;;;;;;13.32;5.88;;;;;;;;;;6332270;22;20531;-77
2023/04/05 16:57:22;;;;;;;9.20;5.10;;;;;;;;;;6332673;22;20038;-77
2023/04/05 16:59:48;;;;;;;9.20;5.30;;;;;;;;;;6333797;22;20038;-77
2023/04/05 17:02:16;;;;;;;17.42;6.28;;;;;;;;;;6335217;22;20473;-77
2023/04/05 17:04:43;;;;;;;14.60;6.28;;;;;;;;;;6334438;22;20019;-77
2023/04/05 17:07:09;;;;;;;16.80;6.20;;;;;;;;;;6334487;22;20556;-77
2023/04/05 17:09:38;;;;;;;20.02;7.63;;;;;;;;;;6336432;22;20590;-77
2023/04/05 17:12:07;;;;;;;11.13;8.05;;;;;;;;;;6334570;22;20081;-77
2023/04/05 17:14:33;;;;;;;17.75;6.68;;;;;;;;;;6334640;22;20470;-77
2023/04/05 17:16:59;;;;;;;14.13;6.38;;;;;;;;;;6335525;22;20108;-77
2023/04/05 17:19:25;;;;;;;11.82;6.90;;;;;;;;;;6333620;22;20021;-77
2023/04/05 17:21:51;;;;;;;10.88;6.43;;;;;;;;;;6333286;22;20011;-78
2023/04/05 17:24:17;;;;;;;20.25;6.20;;;;;;;;;;6334326;22;20014;-78
2023/04/05 17:26:43;;;;;;;15.73;6.38;;;;;;;;;;6336595;22;20007;-77
2023/04/05 17:29:11;;;;;;;14.10;6.00;;;;;;;;;;6336303;22;20022;-80
2023/04/05 17:31:37;;;;;;;11.75;6.30;;;;;;;;;;6329924;22;20461;-80
2023/04/05 17:34:03;;;;;;;8.77;6.32;;;;;;;;;;6335330;22;20011;-77
2023/04/05 17:36:30;;;;;;;9.93;6.05;;;;;;;;;;6335785;22;20272;-78
2023/04/05 17:38:59;;;;;;;6.30;5.68;;;;;;;;;;6334071;22;20014;-76
2023/04/05 17:41:25;;;;;;;12.77;6.80;;;;;;;;;;6335738;22;20007;-77
2023/04/05 17:43:54;;;;;;;6.45;5.85;;;;;;;;;;6334399;22;20366;-76
2023/04/05 17:46:20;;;;;;;10.43;6.15;;;;;;;;;;6334241;22;20026;-77
2023/04/05 17:48:46;;;;;;;7.57;4.90;;;;;;;;;;6331297;22;20054;-77
2023/04/05 17:51:12;;;;;;;12.45;6.20;;;;;;;;;;6333525;22;20459;-78
2023/04/05 17:53:40;;;;;;;7.47;5.47;;;;;;;;;;6334326;22;20038;-77
2023/04/05 17:56:05;;;;;;;7.65;5.13;;;;;;;;;;6335995;22;20010;-77
2023/04/05 17:58:31;;;;;;;11.00;5.43;;;;;;;;;;6335472;22;20037;-76
2023/04/05 18:01:00;;;;;;;13.32;5.40;;;;;;;;;;6335801;22;20073;-77
2023/04/05 18:03:26;;;;;;;12.48;5.72;;;;;;;;;;6337526;22;20015;-78
2023/04/05 18:05:55;;;;;;;6.32;4.20;;;;;;;;;;6335517;22;20015;-77
2023/04/05 18:08:21;;;;;;;12.38;5.20;;;;;;;;;;6334078;22;20117;-77
2023/04/05 18:10:59;;;;;;;9.30;5.60;;;;;;;;;;6335572;22;20068;-76
2023/04/05 18:13:25;;;;;;;8.38;5.00;;;;;;;;;;6307447;22;20022;-78
2023/04/05 18:15:52;;;;;;;10.82;4.47;;;;;;;;;;6306727;22;20090;-77
2023/04/05 18:18:19;;;;;;;7.75;4.68;;;;;;;;;;6334010;22;20090;-77
2023/04/05 18:20:47;;;;;;;11.52;4.80;;;;;;;;;;6334011;22;20462;-77
2023/04/05 18:23:13;;;;;;;7.63;4.78;;;;;;;;;;6332391;22;20467;-77
2023/04/05 18:25:39;;;;;;;8.07;4.68;;;;;;;;;;6331002;22;20033;-77
2023/04/05 18:28:06;;;;;;;9.68;4.28;;;;;;;;;;6332336;22;20023;-75
2023/04/05 18:30:32;;;;;;;7.10;4.50;;;;;;;;;;6333515;22;20093;-76
2023/04/05 18:32:58;;;;;;;7.93;4.78;;;;;;;;;;6334629;22;20347;-76
2023/04/05 18:35:24;;;;;;;7.85;4.40;;;;;;;;;;6305743;22;20015;-76
2023/04/05 18:37:50;;;;;;;10.95;4.47;;;;;;;;;;6333586;22;20007;-76
2023/04/05 18:40:16;;;;;;;7.90;5.03;;;;;;;;;;6333874;22;20014;-78
2023/04/05 18:42:42;;;;;;;8.95;4.82;;;;;;;;;;6333685;22;20449;-76
2023/04/05 18:45:09;;;;;;;7.88;5.03;;;;;;;;;;6332882;22;20015;-77
2023/04/05 18:47:35;;;;;;;9.48;5.63;;;;;;;;;;6333477;22;20078;-75
2023/04/05 18:50:02;;;;;;;8.20;4.35;;;;;;;;;;6332504;22;20050;-77
2023/04/05 18:52:32;;;;;;;12.73;4.72;;;;;;;;;;6334508;22;20018;-75
2023/04/05 18:55:00;;;;;;;9.17;5.30;;;;;;;;;;6333365;22;20010;-74
2023/04/05 18:57:26;;;;;;;5.25;4.80;;;;;;;;;;6332733;22;20008;-76
2023/04/05 18:59:52;;;;;;;6.30;5.15;;;;;;;;;;6334041;22;20014;-76
2023/04/05 19:02:18;;;;;;;6.00;4.93;;;;;;;;;;6332615;22;20059;-76
2023/04/05 19:04:44;;;;;;;6.22;4.93;;;;;;;;;;6333647;22;20089;-75
2023/04/05 19:07:10;;;;;;;7.03;4.35;;;;;;;;;;6334731;22;20015;-75
2023/04/05 19:09:37;;;;;;;6.43;5.20;;;;;;;;;;6334562;22;20019;-75
2023/04/05 19:12:03;;;;;;;11.05;5.25;;;;;;;;;;6333247;22;20010;-74
2023/04/05 19:14:30;;;;;;;11.10;5.72;;;;;;;;;;6331243;22;20018;-76
2023/04/05 19:16:56;;;;;;;6.32;5.13;;;;;;;;;;6332398;22;20011;-75
2023/04/05 19:19:22;;;;;;;10.40;5.50;;;;;;;;;;6334585;22;20053;-75
2023/04/05 19:21:48;;;;;;;6.35;5.30;;;;;;;;;;6335344;22;20007;-77
2023/04/05 19:24:14;;;;;;;7.35;5.80;;;;;;;;;;6334156;22;20034;-77
2023/04/05 19:26:40;;;;;;;6.18;5.68;;;;;;;;;;6335205;22;20451;-76
2023/04/05 19:29:06;;;;;;;8.68;5.60;;;;;;;;;;6332873;22;20359;-75
2023/04/05 19:31:33;;;;;;;11.75;5.55;;;;;;;;;;6333457;22;20015;-75
2023/04/05 19:33:59;;;;;;;7.55;5.38;;;;;;;;;;6333450;22;20447;-76
2023/04/05 19:36:26;;;;;;;8.32;5.75;;;;;;;;;;6334095;22;20041;-75
2023/04/05 19:38:52;;;;;;;7.43;5.70;;;;;;;;;;6333074;22;20018;-75
2023/04/05 19:41:18;;;;;;;7.97;4.80;;;;;;;;;;6305129;22;20045;-75
2023/04/05 19:43:45;;;;;;;7.38;5.65;;;;;;;;;;6334426;22;20459;-75
2023/04/05 19:46:11;;;;;;;8.98;5.50;;;;;;;;;;6333431;22;20458;-74
2023/04/05 19:48:38;;;;;;;6.55;5.00;;;;;;;;;;6306742;22;20068;-74
2023/04/05 19:51:07;;;;;;;9.00;6.00;;;;;;;;;;6333130;22;20425;-74
2023/04/05 19:53:33;;;;;;;9.23;5.43;;;;;;;;;;6334278;22;20409;-74
2023/04/05 19:55:59;;;;;;;10.63;5.60;;;;;;;;;;6334991;22;20011;-74
2023/04/05 19:58:25;;;;;;;7.72;5.93;;;;;;;;;;6333236;22;20098;-74
2023/04/05 20:00:53;;;;;;;8.57;5.97;;;;;;;;;;6332453;22;20394;-75
2023/04/05 20:03:28;;;;;;;11.55;5.47;;;;;;;;;;6332615;22;20075;-75
2023/04/05 20:06:07;;;;;;;8.95;5.85;;;;;;;;;;6333976;22;20010;-74
2023/04/05 20:08:36;;;;;;;11.05;5.38;;;;;;;;;;6335102;22;20098;-74
2023/04/05 20:11:23;;;;;;;7.22;6.53;;;;;;;;;;6337412;22;20041;-75
2023/04/05 20:13:55;;;;;;;6.55;5.90;;;;;;;;;;6334690;22;20017;-76
2023/04/05 20:16:25;;;;;;;11.20;6.93;;;;;;;;;;6334538;22;20014;-76
2023/04/05 20:18:52;;;;;;;12.68;4.90;;;;;;;;;;6334929;22;20017;-75
2023/04/05 20:21:19;;;;;;;6.70;6.13;;;;;;;;;;6331581;22;20015;-75
2023/04/05 20:23:46;;;;;;;9.00;6.25;;;;;;;;;;6334501;22;20017;-75
2023/04/05 20:26:13;;;;;;;7.47;6.82;;;;;;;;;;6334305;22;20018;-77
2023/04/05 20:28:52;;;;;;;8.00;5.93;;;;;;;;;;6334563;22;20019;-76
2023/04/05 20:31:22;;;;;;;7.07;5.85;;;;;;;;;;6333911;22;20007;-76
2023/04/05 20:33:55;;;;;;;9.20;6.10;;;;;;;;;;6334886;22;20085;-76
2023/04/05 20:36:22;;;;;;;7.57;6.88;;;;;;;;;;6337198;22;20010;-76
2023/04/05 20:38:48;;;;;;;6.75;6.05;;;;;;;;;;6309303;22;20022;-75
2023/04/05 20:41:16;;;;;;;7.32;6.38;;;;;;;;;;6335198;22;20051;-78
2023/04/05 20:43:42;;;;;;;8.02;6.30;;;;;;;;;;6335049;22;20390;-78
2023/04/05 20:46:08;;;;;;;7.80;6.30;;;;;;;;;;6334015;22;20049;-75
2023/04/05 20:48:34;;;;;;;10.75;6.03;;;;;;;;;;6336019;22;20079;-75
2023/04/05 20:51:00;;;;;;;9.25;6.57;;;;;;;;;;6336087;22;20023;-75
2023/04/05 20:53:27;;;;;;;11.30;7.72;;;;;;;;;;6335960;22;20020;-75
2023/04/05 20:55:53;;;;;;;8.38;7.65;;;;;;;;;;6336595;22;20761;-77
2023/04/05 20:58:20;;;;;;;15.32;7.05;;;;;;;;;;6336035;22;20007;-76
2023/04/05 21:00:46;;;;;;;8.27;7.47;;;;;;;;;;6333999;22;20408;-78
2023/04/05 21:03:13;;;;;;;8.05;7.03;;;;;;;;;;6333500;22;20011;-77
2023/04/05 21:05:39;;;;;;;9.82;6.97;;;;;;;;;;6334820;22;20011;-75
2023/04/05 21:08:05;;;;;;;9.40;8.10;;;;;;;;;;6336498;22;20010;-73
2023/04/05 21:10:31;;;;;;;7.68;6.88;;;;;;;;;;6334688;22;20017;-74
2023/04/05 21:12:57;;;;;;;8.90;7.05;;;;;;;;;;6334491;22;20007;-73
2023/04/05 21:15:27;;;;;;;11.25;8.20;;;;;;;;;;6341215;22;20011;-74
2023/04/05 21:17:53;;;;;;;11.57;9.13;;;;;;;;;;6344813;22;20299;-73
2023/04/05 21:20:19;;;;;;;9.25;8.30;;;;;;;;;;6345478;22;20273;-73
2023/04/05 21:22:45;;;;;;;8.95;8.13;;;;;;;;;;6345081;22;20063;-73
2023/04/05 21:25:11;;;;;;;9.27;8.32;;;;;;;;;;6343434;22;20018;-73
2023/04/05 21:27:38;;;;;;;8.80;8.00;;;;;;;;;;6338061;22;20780;-73
2023/04/05 21:30:04;;;;;;;10.50;9.43;;;;;;;;;;6334504;22;20023;-75
2023/04/05 21:32:30;;;;;;;11.07;7.88;;;;;;;;;;6335555;22;20013;-74
2023/04/05 21:34:56;;;;;;;9.50;8.48;;;;;;;;;;6336191;22;20014;-72
2023/04/05 21:37:22;;;;;;;13.27;8.23;;;;;;;;;;6332933;22;20022;-75
2023/04/05 21:39:48;;;;;;;10.82;8.00;;;;;;;;;;6334121;22;20482;-74
2023/04/05 21:42:14;;;;;;;11.18;8.73;;;;;;;;;;6334854;22;20018;-74
2023/04/05 21:44:40;;;;;;;10.23;9.35;;;;;;;;;;6332726;22;20092;-74
2023/04/05 21:47:06;;;;;;;11.23;8.82;;;;;;;;;;6335157;22;20007;-74
2023/04/05 21:49:32;;;;;;;9.27;7.40;;;;;;;;;;6332873;22;20027;-74
2023/04/05 21:51:58;;;;;;;10.82;9.38;;;;;;;;;;6335146;22;20351;-75
2023/04/05 21:54:24;;;;;;;10.15;9.20;;;;;;;;;;6333393;22;20015;-75
2023/04/05 21:56:51;;;;;;;8.48;6.82;;;;;;;;;;6335541;22;20558;-75
2023/04/05 21:59:16;;;;;;;9.85;8.35;;;;;;;;;;6333606;22;20080;-75
2023/04/05 22:01:43;;;;;;;9.00;7.70;;;;;;;;;;6335141;22;20011;-74
2023/04/05 22:04:09;;;;;;;8.48;7.65;;;;;;;;;;6334381;22;20447;-75
2023/04/05 22:06:36;;;;;;;13.98;8.13;;;;;;;;;;6334955;22;20007;-74
2023/04/05 22:09:02;;;;;;;11.18;7.90;;;;;;;;;;6335685;22;20018;-75
2023/04/05 22:11:27;;;;;;;9.90;8.82;;;;;;;;;;6336101;22;20066;-74
2023/04/05 22:13:53;;;;;;;10.48;8.15;;;;;;;;;;6336367;22;20392;-75
2023/04/05 22:16:20;;;;;;;12.05;8.77;;;;;;;;;;6335766;22;20014;-75
2023/04/05 22:18:46;;;;;;;8.52;7.82;;;;;;;;;;6338314;22;20082;-75
2023/04/05 22:21:12;;;;;;;9.75;6.63;;;;;;;;;;6334087;22;20103;-75
2023/04/05 22:23:38;;;;;;;11.98;7.93;;;;;;;;;;6334519;22;20017;-74
2023/04/05 22:26:04;;;;;;;10.07;8.13;;;;;;;;;;6336171;22;20030;-74
2023/04/05 22:28:30;;;;;;;8.45;7.75;;;;;;;;;;6335782;22;20023;-75
2023/04/05 22:30:56;;;;;;;9.82;8.75;;;;;;;;;;6334673;22;20010;-75
2023/04/05 22:33:22;;;;;;;8.27;7.57;;;;;;;;;;6336036;22;20053;-74
2023/04/05 22:35:48;;;;;;;9.18;7.50;;;;;;;;;;6335167;22;20018;-74
2023/04/05 22:38:14;;;;;;;9.02;7.07;;;;;;;;;;6334233;22;20007;-75
2023/04/05 22:40:40;;;;;;;8.95;7.95;;;;;;;;;;6337640;22;20061;-74
2023/04/05 22:43:06;;;;;;;7.13;6.53;;;;;;;;;;6334801;22;20060;-74
2023/04/05 22:45:32;;;;;;;7.72;6.70;;;;;;;;;;6335468;22;20010;-75
2023/04/05 22:47:58;;;;;;;8.70;8.00;;;;;;;;;;6347161;22;20083;-75
2023/04/05 22:50:24;;;;;;;7.30;6.70;;;;;;;;;;6353245;22;20026;-75
2023/04/05 22:52:50;;;;;;;9.90;8.80;;;;;;;;;;6347606;22;20018;-75
2023/04/05 22:55:16;;;;;;;8.90;7.35;;;;;;;;;;6359150;22;20010;-75
2023/04/05 22:57:42;;;;;;;8.48;6.95;;;;;;;;;;6358481;22;20006;-76
2023/04/05 23:00:09;;;;;;;8.70;7.82;;;;;;;;;;6338977;22;20462;-76
2023/04/05 23:02:35;;;;;;;8.23;7.53;;;;;;;;;;6335330;22;20042;-75
2023/04/05 23:05:01;;;;;;;8.45;7.03;;;;;;;;;;6336373;22;20011;-75
2023/04/05 23:07:28;;;;;;;8.40;7.45;;;;;;;;;;6309012;22;20093;-75
2023/04/05 23:09:54;;;;;;;7.90;7.20;;;;;;;;;;6336152;22;20130;-74
2023/04/05 23:12:20;;;;;;;9.90;7.35;;;;;;;;;;6336374;22;20029;-75
2023/04/05 23:14:46;;;;;;;7.82;6.88;;;;;;;;;;6308382;22;20017;-75
2023/04/05 23:17:12;;;;;;;7.90;7.20;;;;;;;;;;6336319;22;20411;-74
2023/04/05 23:19:39;;;;;;;7.40;6.70;;;;;;;;;;6335634;22;20021;-75
2023/04/05 23:22:06;;;;;;;7.47;6.80;;;;;;;;;;6308928;22;20010;-76
2023/04/05 23:24:32;;;;;;;7.50;6.80;;;;;;;;;;6334153;22;20481;-76
2023/04/05 23:26:58;;;;;;;7.25;6.60;;;;;;;;;;6336246;22;20006;-75
2023/04/05 23:29:25;;;;;;;8.85;7.30;;;;;;;;;;6336053;22;20541;-75
2023/04/05 23:31:54;;;;;;;8.85;7.97;;;;;;;;;;6334907;22;20011;-75
2023/04/05 23:34:20;;;;;;;8.77;6.93;;;;;;;;;;6336205;22;20021;-74
2023/04/05 23:36:46;;;;;;;9.20;8.45;;;;;;;;;;6334509;22;20291;-75
2023/04/05 23:39:12;;;;;;;9.63;7.47;;;;;;;;;;6336227;22;20022;-73
2023/04/05 23:41:39;;;;;;;9.38;8.50;;;;;;;;;;6334193;22;20420;-74
2023/04/05 23:44:05;;;;;;;8.68;6.78;;;;;;;;;;6336734;22;20101;-75
2023/04/05 23:46:34;;;;;;;8.90;8.20;;;;;;;;;;6336613;22;20022;-76
2023/04/05 23:49:00;;;;;;;6.20;5.70;;;;;;;;;;6336196;22;20025;-75
2023/04/05 23:51:27;;;;;;;8.23;7.05;;;;;;;;;;6335700;22;20046;-75
2023/04/05 23:53:53;;;;;;;8.95;8.15;;;;;;;;;;6336564;22;20014;-74
2023/04/05 23:56:20;;;;;;;10.70;7.97;;;;;;;;;;6336074;22;20060;-74
2023/04/05 23:58:45;;;;;;;6.85;6.25;;;;;;;;;;6336337;22;20328;-74
